Time;durP1;ratioP1;P1;durP2;ratioP2;P2;SDS_P1;SDS_P2;PMS_P1;PMS_P2;Temp;Humidity;BMP_temperature;BMP_pressure;BME280_temperature;BME280_humidity;BME280_pressure;Samples;Min_cycle;Max_cycle;Signal;HPM_P1;HPM_P2
2021/06/09 19:51:32;;;;;;;8.52;6.30;;;24.40;99.90;;;;;;5120885;27;20312;-76
2021/06/09 19:53:57;;;;;;;10.25;6.15;;;21.00;99.90;;;;;;5087997;28;20032;-77
2021/06/09 19:56:23;;;;;;;6.53;5.82;;;20.90;99.90;;;;;;5088088;28;20058;-77
2021/06/09 19:58:49;;;;;;;10.23;6.50;;;20.70;99.90;;;;;;5087808;28;20026;-77
2021/06/09 20:01:15;;;;;;;8.82;6.32;;;20.60;99.90;;;;;;5087811;28;20396;-77
2021/06/09 20:03:41;;;;;;;9.18;7.10;;;20.50;99.90;;;;;;5087689;28;20099;-77
2021/06/09 20:06:10;;;;;;;8.88;7.35;;;20.50;99.90;;;;;;5088795;28;20508;-76
2021/06/09 20:08:35;;;;;;;8.18;6.80;;;20.40;99.90;;;;;;5088557;28;20032;-77
2021/06/09 20:11:01;;;;;;;8.90;7.13;;;20.30;99.90;;;;;;5088704;28;20036;-76
2021/06/09 20:13:32;;;;;;;8.63;7.72;;;20.10;99.90;;;;;;5082561;28;20029;-76
2021/06/09 20:15:59;;;;;;;12.30;7.00;;;20.00;99.90;;;;;;5076807;28;20071;-76
2021/06/09 20:18:30;;;;;;;10.65;7.05;;;20.00;99.90;;;;;;5079261;28;20858;-76
2021/06/09 20:20:57;;;;;;;8.55;7.38;;;19.90;99.90;;;;;;5076016;28;20035;-76
2021/06/09 20:23:27;;;;;;;12.57;7.60;;;19.90;99.90;;;;;;5078977;28;20074;-76
2021/06/09 20:28:18;;;;;;;11.43;8.65;;;19.70;99.90;;;;;;5076929;28;20044;-76
2021/06/09 20:30:44;;;;;;;10.63;8.05;;;19.70;99.90;;;;;;5075072;28;20039;-76
2021/06/09 20:33:12;;;;;;;9.23;8.23;;;19.70;99.90;;;;;;5077097;28;20013;-76
2021/06/09 20:35:38;;;;;;;10.68;8.60;;;19.60;99.90;;;;;;5076673;28;20099;-76
2021/06/09 20:38:05;;;;;;;10.18;8.05;;;19.50;99.90;;;;;;5078243;28;20025;-76
2021/06/09 20:40:31;;;;;;;10.13;8.52;;;19.40;99.90;;;;;;5074805;28;20021;-74
2021/06/09 20:42:57;;;;;;;10.57;7.57;;;19.30;99.90;;;;;;5077848;28;20232;-74
2021/06/09 20:45:23;;;;;;;9.27;7.72;;;19.30;99.90;;;;;;5078503;28;20053;-74
2021/06/09 20:47:50;;;;;;;13.48;8.50;;;19.60;99.90;;;;;;5080707;28;20028;-74
2021/06/09 20:50:18;;;;;;;10.25;8.55;;;19.00;99.90;;;;;;5087754;28;20135;-74
2021/06/09 20:52:45;;;;;;;11.45;8.95;;;18.90;99.90;;;;;;5088395;28;20107;-74
2021/06/09 20:55:12;;;;;;;11.27;8.27;;;18.90;99.90;;;;;;5088429;28;20025;-74
2021/06/09 20:57:37;;;;;;;10.27;9.18;;;18.90;99.90;;;;;;5088506;28;20067;-74
2021/06/09 21:00:05;;;;;;;14.40;9.88;;;18.90;99.90;;;;;;5087862;28;20057;-74
2021/06/09 21:02:31;;;;;;;13.35;9.48;;;18.70;99.90;;;;;;5076568;28;20027;-74
2021/06/09 21:04:57;;;;;;;10.30;9.23;;;18.70;99.90;;;;;;5073100;28;20037;-75
2021/06/09 21:07:23;;;;;;;10.27;8.60;;;18.50;99.90;;;;;;5074656;28;20082;-74
2021/06/09 21:09:49;;;;;;;13.68;9.57;;;18.50;99.90;;;;;;5074229;28;20028;-74
2021/06/09 21:12:15;;;;;;;17.05;10.93;;;18.40;99.90;;;;;;5074450;28;20084;-74
2021/06/09 21:14:41;;;;;;;17.73;13.02;;;18.20;99.90;;;;;;5074775;28;20096;-75
2021/06/09 21:17:07;;;;;;;14.20;11.23;;;18.10;99.90;;;;;;5074385;28;20134;-75
2021/06/09 21:19:33;;;;;;;13.82;11.90;;;18.00;99.90;;;;;;5073987;28;20040;-74
2021/06/09 21:21:59;;;;;;;15.15;12.25;;;18.00;99.90;;;;;;5074439;28;20025;-75
2021/06/09 21:24:25;;;;;;;17.30;12.73;;;17.80;99.90;;;;;;5073934;28;20044;-75
2021/06/09 21:26:50;;;;;;;14.98;13.48;;;17.80;99.90;;;;;;5074273;28;20488;-75
2021/06/09 21:29:16;;;;;;;17.02;12.95;;;17.60;99.90;;;;;;5073787;28;20058;-75
2021/06/09 21:31:42;;;;;;;14.48;13.05;;;17.80;99.90;;;;;;5065978;28;20104;-75
2021/06/09 21:34:08;;;;;;;14.55;13.02;;;17.80;99.90;;;;;;5053996;28;20378;-74
2021/06/09 21:36:36;;;;;;;18.58;13.40;;;17.90;99.90;;;;;;5053961;28;20028;-75
2021/06/09 21:39:04;;;;;;;15.93;12.18;;;17.70;99.90;;;;;;5053736;28;20482;-75
2021/06/09 21:41:30;;;;;;;14.88;12.90;;;17.60;99.90;;;;;;5053527;28;20032;-75
2021/06/09 21:43:56;;;;;;;22.05;13.50;;;17.80;99.90;;;;;;5052475;28;20401;-75
2021/06/09 21:46:22;;;;;;;15.85;12.88;;;17.60;99.90;;;;;;5059902;28;20084;-75
2021/06/09 21:48:47;;;;;;;15.27;13.68;;;17.70;99.90;;;;;;5072526;28;20040;-75
2021/06/09 21:51:13;;;;;;;17.77;15.63;;;17.50;99.90;;;;;;5073814;28;20124;-75
2021/06/09 21:53:39;;;;;;;25.55;15.25;;;17.50;99.90;;;;;;5073807;28;20078;-75
2021/06/09 21:56:05;;;;;;;16.77;14.82;;;17.70;99.90;;;;;;5073673;28;20377;-75
2021/06/09 21:58:31;;;;;;;15.85;13.27;;;17.50;99.90;;;;;;5073724;28;20031;-75
2021/06/09 22:00:58;;;;;;;17.92;16.02;;;17.50;99.90;;;;;;5061062;28;20588;-75
2021/06/09 22:03:24;;;;;;;18.45;15.25;;;17.80;99.90;;;;;;5062840;28;20079;-75
2021/06/09 22:05:50;;;;;;;19.83;14.48;;;17.40;99.90;;;;;;5061262;28;20025;-75
2021/06/09 22:08:15;;;;;;;18.90;14.75;;;17.30;99.90;;;;;;5059777;28;20486;-74
2021/06/09 22:10:41;;;;;;;19.90;15.50;;;17.30;99.90;;;;;;5054043;28;20036;-75
2021/06/09 22:13:07;;;;;;;18.85;15.95;;;17.20;99.90;;;;;;5052508;28;20444;-75
2021/06/09 22:15:33;;;;;;;18.30;15.70;;;17.30;99.90;;;;;;5053333;28;20500;-75
2021/06/09 22:17:59;;;;;;;18.25;15.18;;;17.30;99.90;;;;;;5072690;28;20082;-75
2021/06/09 22:20:25;;;;;;;18.67;14.90;;;17.90;99.90;;;;;;5073058;28;20036;-75
2021/06/09 22:22:51;;;;;;;17.90;15.05;;;17.30;99.90;;;;;;5073176;28;20501;-76
2021/06/09 22:25:17;;;;;;;23.27;15.95;;;17.10;99.90;;;;;;5073071;28;20042;-76
2021/06/09 22:27:44;;;;;;;23.85;15.20;;;17.10;99.90;;;;;;5066383;28;20039;-74
2021/06/09 22:30:15;;;;;;;18.45;14.70;;;17.00;99.90;;;;;;5052601;28;20086;-75
2021/06/09 22:32:41;;;;;;;19.00;14.93;;;17.00;99.90;;;;;;5053008;28;20080;-75
2021/06/09 22:35:08;;;;;;;17.65;15.55;;;16.90;99.90;;;;;;5053225;28;20029;-75
2021/06/09 22:37:34;;;;;;;19.27;15.18;;;16.90;99.90;;;;;;5053429;28;20096;-76
2021/06/09 22:40:00;;;;;;;16.38;14.05;;;17.30;99.90;;;;;;5053006;28;20108;-75
2021/06/09 22:42:26;;;;;;;22.05;14.57;;;17.80;99.90;;;;;;5051202;28;20116;-76
2021/06/09 22:44:51;;;;;;;16.25;13.80;;;16.80;99.90;;;;;;5068496;28;20043;-76
2021/06/09 22:47:17;;;;;;;17.73;14.63;;;16.70;99.90;;;;;;5072561;28;20086;-76
2021/06/09 22:49:43;;;;;;;17.42;15.63;;;16.70;99.90;;;;;;5070878;28;20033;-75
2021/06/09 22:52:09;;;;;;;18.67;15.07;;;16.90;99.90;;;;;;5072579;28;20021;-76
2021/06/09 22:54:39;;;;;;;18.92;15.48;;;16.60;99.90;;;;;;5072549;28;20033;-76
2021/06/09 22:57:05;;;;;;;19.48;15.75;;;16.60;99.90;;;;;;5072528;28;20017;-76
2021/06/09 22:59:31;;;;;;;19.35;15.73;;;16.80;99.90;;;;;;5072122;28;20024;-75
2021/06/09 23:01:56;;;;;;;17.25;15.40;;;16.60;99.90;;;;;;5071231;28;20103;-75
2021/06/09 23:04:23;;;;;;;20.67;15.70;;;16.50;99.90;;;;;;5072302;28;20028;-75
2021/06/09 23:06:48;;;;;;;19.77;15.65;;;16.70;99.90;;;;;;5071053;28;20024;-76
2021/06/09 23:09:14;;;;;;;18.05;15.13;;;16.50;99.90;;;;;;5072005;28;20524;-76
2021/06/09 23:11:40;;;;;;;18.50;14.52;;;16.40;99.90;;;;;;5067296;28;20444;-75
2021/06/09 23:14:05;;;;;;;17.35;15.35;;;16.60;99.90;;;;;;5052146;28;20017;-76
2021/06/09 23:16:31;;;;;;;18.92;15.48;;;16.40;99.90;;;;;;5051039;28;20033;-75
2021/06/09 23:18:57;;;;;;;16.67;14.43;;;16.40;99.90;;;;;;5058305;28;20021;-75
2021/06/09 23:21:22;;;;;;;24.48;15.52;;;16.20;99.90;;;;;;5062441;28;20066;-75
2021/06/09 23:23:48;;;;;;;17.67;15.52;;;16.20;99.90;;;;;;5058120;28;20059;-76
2021/06/09 23:26:14;;;;;;;20.27;16.42;;;16.80;99.90;;;;;;5052361;28;20028;-75
2021/06/09 23:28:39;;;;;;;17.60;15.70;;;16.20;99.90;;;;;;5052330;28;20040;-75
2021/06/09 23:31:05;;;;;;;17.15;15.32;;;16.30;99.90;;;;;;5051882;28;20124;-75
2021/06/09 23:33:31;;;;;;;16.88;14.45;;;16.30;99.90;;;;;;5052400;28;20432;-75
2021/06/09 23:35:56;;;;;;;17.48;15.15;;;16.30;99.90;;;;;;5052014;28;20029;-76
2021/06/09 23:38:22;;;;;;;18.40;14.93;;;16.40;99.90;;;;;;5051929;28;20029;-75
2021/06/09 23:40:48;;;;;;;16.52;14.68;;;16.40;99.90;;;;;;5063698;28;20033;-75
2021/06/09 23:43:14;;;;;;;22.83;14.82;;;16.40;99.90;;;;;;5071846;28;20033;-76
2021/06/09 23:45:39;;;;;;;18.25;14.55;;;16.10;99.90;;;;;;5071645;28;20031;-75
2021/06/09 23:48:07;;;;;;;15.45;13.93;;;16.50;99.90;;;;;;5071941;28;20115;-75
2021/06/09 23:53:12;;;;;;;15.45;13.82;;;16.10;99.90;;;;;;5071767;28;20044;-74
2021/06/09 23:55:38;;;;;;;18.33;14.75;;;15.90;99.90;;;;;;5071812;28;20029;-75
2021/06/09 23:58:04;;;;;;;15.75;13.85;;;16.00;99.90;;;;;;5071664;28;20020;-75
